createdAt,value
2022-10-07T00:00:27.713Z,22.89
2022-10-07T00:02:54.307Z,22.88
2022-10-07T00:05:20.894Z,22.85
2022-10-07T00:07:47.603Z,22.83
2022-10-07T00:10:14.232Z,22.81
2022-10-07T00:12:40.912Z,22.78
2022-10-07T00:15:08.607Z,22.76
2022-10-07T00:17:35.199Z,22.70
2022-10-07T00:20:01.783Z,22.68
2022-10-07T00:22:28.380Z,22.69
2022-10-07T00:24:54.982Z,22.65
2022-10-07T00:27:21.582Z,22.67
2022-10-07T00:29:48.200Z,22.66
2022-10-07T00:32:14.804Z,22.63
2022-10-07T00:34:41.382Z,22.71
2022-10-07T00:37:07.925Z,22.76
2022-10-07T00:39:34.390Z,22.78
2022-10-07T00:42:00.836Z,22.80
2022-10-07T00:44:33.847Z,22.83
2022-10-07T00:47:03.297Z,22.84
2022-10-07T00:49:31.597Z,22.83
2022-10-07T00:51:58.158Z,22.85
2022-10-07T00:54:24.609Z,22.86
2022-10-07T00:56:51.091Z,22.86
2022-10-07T00:59:17.820Z,22.85
2022-10-07T01:01:44.405Z,22.85
2022-10-07T01:04:11.318Z,22.86
2022-10-07T01:06:40.728Z,22.85
2022-10-07T01:09:07.589Z,22.84
2022-10-07T01:11:44.283Z,22.81
2022-10-07T01:14:30.889Z,22.80
2022-10-07T01:17:11.108Z,22.78
2022-10-07T01:19:59.514Z,22.76
2022-10-07T01:22:37.976Z,22.76
2022-10-07T01:25:16.677Z,22.75
2022-10-07T01:27:47.246Z,22.75
2022-10-07T01:30:13.808Z,22.76
2022-10-07T01:33:02.935Z,22.75
2022-10-07T01:35:32.699Z,22.78
2022-10-07T01:38:00.574Z,22.78
2022-10-07T01:40:32.488Z,22.81
2022-10-07T01:42:58.988Z,22.80
2022-10-07T01:45:25.936Z,22.78
2022-10-07T01:47:52.393Z,22.78
2022-10-07T01:50:20.889Z,22.79
2022-10-07T01:52:47.258Z,22.80
2022-10-07T01:55:29.047Z,22.78
2022-10-07T01:58:02.781Z,22.77
2022-10-07T02:00:29.308Z,22.77
2022-10-07T02:03:21.345Z,22.77
2022-10-07T02:05:54.416Z,22.76
2022-10-07T02:08:39.526Z,22.75
2022-10-07T02:11:16.052Z,22.75
2022-10-07T02:14:02.279Z,22.78
2022-10-07T02:16:30.110Z,22.78
2022-10-07T02:18:57.579Z,22.79
2022-10-07T02:21:26.971Z,22.78
2022-10-07T02:23:54.215Z,22.74
2022-10-07T02:26:21.383Z,22.78
2022-10-07T02:28:47.956Z,22.77
2022-10-07T02:31:17.767Z,22.76
2022-10-07T02:33:44.823Z,22.76
2022-10-07T02:36:13.466Z,22.76
2022-10-07T02:38:40.286Z,22.71
2022-10-07T02:41:33.041Z,22.70
2022-10-07T02:44:08.262Z,22.67
2022-10-07T02:46:38.721Z,22.69
2022-10-07T02:49:06.720Z,22.67
2022-10-07T02:51:42.409Z,22.67
2022-10-07T02:54:08.869Z,22.68
2022-10-07T02:56:37.023Z,22.71
2022-10-07T02:59:04.239Z,22.75
2022-10-07T03:01:34.194Z,22.76
2022-10-07T03:04:01.257Z,22.79
2022-10-07T03:06:30.873Z,22.83
2022-10-07T03:08:57.970Z,22.86
2022-10-07T03:11:24.540Z,22.89
2022-10-07T03:13:50.993Z,22.87
2022-10-07T03:16:17.557Z,22.87
2022-10-07T03:18:44.816Z,22.87
2022-10-07T03:21:11.293Z,22.86
2022-10-07T03:23:38.306Z,22.83
2022-10-07T03:26:04.882Z,22.82
2022-10-07T03:28:33.175Z,22.81
2022-10-07T03:31:06.557Z,22.79
2022-10-07T03:33:33.143Z,22.79
2022-10-07T03:35:59.577Z,22.78
2022-10-07T03:38:26.035Z,22.79
2022-10-07T03:40:52.479Z,22.79
2022-10-07T03:43:18.973Z,22.81
2022-10-07T03:45:45.973Z,22.80
2022-10-07T03:48:12.490Z,22.83
2022-10-07T03:50:39.650Z,22.84
2022-10-07T03:53:06.171Z,22.85
2022-10-07T03:55:32.627Z,22.83
2022-10-07T03:57:59.852Z,22.83
2022-10-07T04:00:26.541Z,22.81
2022-10-07T04:02:53.100Z,22.81
2022-10-07T04:05:20.644Z,22.80
2022-10-07T04:07:47.906Z,22.76
2022-10-07T04:10:15.309Z,22.77
2022-10-07T04:12:42.112Z,22.77
2022-10-07T04:15:08.971Z,22.76
2022-10-07T04:17:35.437Z,22.79
2022-10-07T04:20:01.910Z,22.80
2022-10-07T04:22:28.381Z,22.80
2022-10-07T04:25:13.243Z,22.81
2022-10-07T04:27:51.488Z,22.83
2022-10-07T04:30:18.605Z,22.82
2022-10-07T04:32:45.076Z,22.83
2022-10-07T04:35:11.534Z,22.84
2022-10-07T04:37:38.000Z,22.82
2022-10-07T04:40:05.210Z,22.82
2022-10-07T04:42:50.252Z,22.80
2022-10-07T04:45:16.697Z,22.79
2022-10-07T04:47:45.198Z,22.79
2022-10-07T04:50:12.590Z,22.79
2022-10-07T04:52:42.831Z,22.80
2022-10-07T04:55:12.140Z,22.80
2022-10-07T04:57:38.746Z,22.78
2022-10-07T05:00:06.060Z,22.79
2022-10-07T05:02:32.625Z,22.78
2022-10-07T05:04:59.788Z,22.78
2022-10-07T05:07:26.312Z,22.77
2022-10-07T05:09:52.925Z,22.74
2022-10-07T05:12:19.555Z,22.73
2022-10-07T05:14:46.055Z,22.70
2022-10-07T05:17:13.687Z,22.69
2022-10-07T05:19:40.143Z,22.69
2022-10-07T05:22:06.776Z,22.70
2022-10-07T05:24:33.353Z,22.69
2022-10-07T05:26:59.809Z,22.73
2022-10-07T05:29:26.274Z,22.74
2022-10-07T05:31:52.877Z,22.77
2022-10-07T05:34:20.219Z,22.77
2022-10-07T05:36:47.307Z,22.78
2022-10-07T05:39:14.518Z,22.79
2022-10-07T05:41:45.590Z,22.82
2022-10-07T05:44:12.361Z,22.82
2022-10-07T05:46:40.093Z,22.82
2022-10-07T05:49:06.532Z,22.84
2022-10-07T05:51:32.982Z,22.83
2022-10-07T05:53:59.606Z,22.85
2022-10-07T05:56:26.042Z,22.83
2022-10-07T05:58:52.638Z,22.83
2022-10-07T06:01:21.235Z,22.85
2022-10-07T06:03:52.115Z,22.85
2022-10-07T06:06:18.995Z,22.92
2022-10-07T06:08:45.876Z,22.98
2022-10-07T06:11:32.143Z,23.14
2022-10-07T06:13:58.802Z,23.09
2022-10-07T06:16:25.578Z,23.08
2022-10-07T06:18:52.595Z,23.08
2022-10-07T06:21:19.650Z,23.06
2022-10-07T06:23:52.799Z,23.07
2022-10-07T06:26:19.394Z,23.07
2022-10-07T06:28:45.939Z,23.09
2022-10-07T06:31:14.014Z,23.04
2022-10-07T06:33:40.596Z,22.71
2022-10-07T06:36:11.541Z,22.69
2022-10-07T06:38:38.251Z,22.59
2022-10-07T06:41:05.306Z,22.53
2022-10-07T06:43:32.834Z,22.49
2022-10-07T06:46:01.976Z,22.53
2022-10-07T06:48:29.294Z,22.56
2022-10-07T06:50:58.452Z,22.48
2022-10-07T06:53:25.271Z,22.39
2022-10-07T06:55:54.481Z,22.38
2022-10-07T06:58:21.544Z,22.49
2022-10-07T07:00:49.926Z,22.61
2022-10-07T07:03:17.008Z,22.67
2022-10-07T07:05:45.744Z,22.84
2022-10-07T07:08:16.729Z,23.08
2022-10-07T07:10:43.690Z,23.09
2022-10-07T07:13:10.404Z,23.09
2022-10-07T07:15:37.063Z,23.06
2022-10-07T07:18:04.440Z,22.87
2022-10-07T07:20:35.742Z,22.66
2022-10-07T07:23:02.292Z,22.56
2022-10-07T07:25:28.993Z,22.56
2022-10-07T07:27:57.935Z,22.61
2022-10-07T07:30:24.890Z,22.55
2022-10-07T07:32:51.372Z,22.63
2022-10-07T07:35:17.859Z,22.71
2022-10-07T07:37:44.611Z,22.68
2022-10-07T07:40:11.252Z,22.78
2022-10-07T07:42:37.715Z,22.86
2022-10-07T07:45:04.405Z,22.95
2022-10-07T07:47:30.941Z,22.98
2022-10-07T07:49:57.386Z,23.05
2022-10-07T07:52:25.508Z,23.04
2022-10-07T07:54:52.431Z,23.09
2022-10-07T07:57:19.544Z,23.11
2022-10-07T07:59:46.072Z,23.12
2022-10-07T08:02:12.619Z,23.18
2022-10-07T08:04:39.139Z,23.17
2022-10-07T08:07:05.609Z,23.06
2022-10-07T08:09:32.335Z,23.01
2022-10-07T08:11:58.917Z,23.10
2022-10-07T08:14:25.711Z,23.15
2022-10-07T08:16:52.168Z,23.13
2022-10-07T08:19:18.630Z,23.21
2022-10-07T08:21:45.101Z,23.21
2022-10-07T08:24:12.346Z,23.23
2022-10-07T08:26:38.817Z,23.27
2022-10-07T08:29:05.447Z,23.32
2022-10-07T08:31:32.035Z,23.35
2022-10-07T08:34:00.822Z,23.36
2022-10-07T08:36:28.227Z,23.36
2022-10-07T08:38:54.719Z,23.41
2022-10-07T08:41:58.909Z,23.47
2022-10-07T08:44:31.931Z,23.48
2022-10-07T08:47:02.617Z,23.47
2022-10-07T08:49:39.594Z,23.52
2022-10-07T08:52:22.164Z,23.55
2022-10-07T08:54:48.619Z,23.53
2022-10-07T08:57:22.614Z,23.58
2022-10-07T08:59:50.192Z,23.54
2022-10-07T09:02:30.936Z,23.61
2022-10-07T09:05:06.916Z,23.67
2022-10-07T09:07:38.717Z,23.66
2022-10-07T09:10:20.262Z,23.65
2022-10-07T09:12:49.122Z,23.61
2022-10-07T09:15:31.038Z,23.61
2022-10-07T09:18:03.571Z,23.64
2022-10-07T09:20:34.672Z,23.63
2022-10-07T09:23:01.147Z,23.69
2022-10-07T09:25:28.932Z,23.71
2022-10-07T09:27:55.510Z,23.69
2022-10-07T09:30:22.926Z,23.74
2022-10-07T09:32:51.266Z,23.76
2022-10-07T09:35:24.599Z,23.74
2022-10-07T09:37:59.460Z,23.78
2022-10-07T09:41:03.573Z,23.74
2022-10-07T09:43:31.189Z,23.81
2022-10-07T09:45:57.995Z,23.82
2022-10-07T09:48:29.356Z,23.74
2022-10-07T09:51:15.941Z,23.81
2022-10-07T09:54:00.040Z,23.80
2022-10-07T09:56:40.787Z,23.85
2022-10-07T09:59:16.089Z,23.84
2022-10-07T10:01:47.954Z,23.83
2022-10-07T10:04:18.648Z,23.88
2022-10-07T10:06:47.189Z,23.86
2022-10-07T10:09:23.770Z,23.89
2022-10-07T10:12:06.580Z,23.85
2022-10-07T10:14:37.575Z,23.90
2022-10-07T10:17:04.432Z,23.92
2022-10-07T10:19:34.964Z,23.82
2022-10-07T10:22:03.927Z,23.84
2022-10-07T10:24:52.778Z,23.86
2022-10-07T10:27:26.079Z,23.84
2022-10-07T10:30:09.383Z,23.88
2022-10-07T10:33:05.488Z,23.89
2022-10-07T10:35:32.308Z,23.93
2022-10-07T10:38:20.830Z,23.88
2022-10-07T10:40:58.861Z,23.95
2022-10-07T10:43:25.231Z,24.04
2022-10-07T10:46:06.561Z,24.08
2022-10-07T10:48:44.875Z,24.08
2022-10-07T10:51:48.988Z,24.00
2022-10-07T10:55:07.504Z,24.03
2022-10-07T10:57:33.837Z,23.97
2022-10-07T11:00:19.277Z,24.04
2022-10-07T11:03:03.551Z,24.08
2022-10-07T11:05:36.770Z,24.08
2022-10-07T11:08:06.118Z,24.06
2022-10-07T11:11:10.159Z,24.14
2022-10-07T11:13:59.898Z,24.15
2022-10-07T11:16:31.804Z,24.21
2022-10-07T11:19:00.851Z,24.19
2022-10-07T11:21:40.440Z,24.17
2022-10-07T11:24:24.269Z,24.22
2022-10-07T11:26:53.731Z,24.16
2022-10-07T11:29:22.922Z,24.16
2022-10-07T11:32:04.909Z,24.13
2022-10-07T11:34:44.787Z,23.74
2022-10-07T11:37:38.379Z,23.60
2022-10-07T11:40:05.779Z,23.97
2022-10-07T11:42:33.810Z,23.90
2022-10-07T11:45:03.510Z,24.03
2022-10-07T11:47:33.980Z,24.03
2022-10-07T11:50:16.756Z,24.06
2022-10-07T11:52:47.636Z,23.91
2022-10-07T11:55:29.131Z,23.97
2022-10-07T11:57:56.708Z,23.98
2022-10-07T12:00:31.624Z,24.02
2022-10-07T12:03:19.696Z,23.91
2022-10-07T12:05:49.155Z,23.95
2022-10-07T12:08:35.630Z,23.80
2022-10-07T12:11:10.943Z,23.83
2022-10-07T12:13:40.920Z,23.69
2022-10-07T12:16:32.327Z,23.81
2022-10-07T12:19:07.761Z,23.79
2022-10-07T12:21:59.273Z,23.71
2022-10-07T12:24:26.537Z,23.75
2022-10-07T12:27:12.760Z,23.77
2022-10-07T12:29:58.558Z,23.74
2022-10-07T12:32:53.723Z,23.66
2022-10-07T12:35:41.104Z,23.74
2022-10-07T12:38:10.563Z,23.73
2022-10-07T12:40:37.025Z,23.76
2022-10-07T12:43:37.379Z,23.71
2022-10-07T12:46:05.402Z,23.73
2022-10-07T12:48:36.707Z,23.86
2022-10-07T12:51:03.188Z,23.96
2022-10-07T12:53:30.412Z,23.87
2022-10-07T12:55:56.916Z,23.94
2022-10-07T12:58:42.017Z,23.97
2022-10-07T13:01:21.461Z,23.87
2022-10-07T13:04:22.597Z,23.82
2022-10-07T13:07:05.293Z,23.75
2022-10-07T13:09:52.550Z,23.68
2022-10-07T13:12:34.215Z,23.77
2022-10-07T13:15:23.825Z,23.70
2022-10-07T13:18:08.559Z,23.75
2022-10-07T13:20:55.416Z,23.70
2022-10-07T13:23:26.202Z,23.43
2022-10-07T13:25:55.419Z,23.33
2022-10-07T13:28:24.748Z,23.32
2022-10-07T13:30:51.778Z,23.39
2022-10-07T13:33:28.410Z,23.44
2022-10-07T13:36:08.280Z,23.39
2022-10-07T13:38:35.939Z,23.35
2022-10-07T13:41:09.468Z,23.05
2022-10-07T13:43:36.125Z,23.21
2022-10-07T13:46:02.687Z,23.30
2022-10-07T13:48:31.374Z,23.33
2022-10-07T13:50:58.498Z,23.35
2022-10-07T13:53:33.589Z,23.37
2022-10-07T13:56:34.391Z,23.29
2022-10-07T13:59:00.981Z,23.20
2022-10-07T14:01:29.323Z,23.27
2022-10-07T14:04:31.489Z,22.86
2022-10-07T14:07:08.453Z,23.03
2022-10-07T14:09:37.268Z,23.16
2022-10-07T14:12:07.386Z,23.04
2022-10-07T14:14:42.523Z,23.02
2022-10-07T14:17:22.960Z,23.00
2022-10-07T14:19:53.278Z,23.06
2022-10-07T14:22:42.031Z,22.94
2022-10-07T14:25:22.724Z,22.85
2022-10-07T14:27:49.147Z,23.07
2022-10-07T14:30:55.609Z,23.11
2022-10-07T14:33:46.121Z,23.10
2022-10-07T14:36:17.528Z,23.06
2022-10-07T14:38:46.347Z,23.06
2022-10-07T14:41:13.607Z,23.02
2022-10-07T14:43:40.975Z,23.04
2022-10-07T14:46:18.459Z,23.00
2022-10-07T14:48:45.441Z,22.98
2022-10-07T14:51:12.057Z,23.03
2022-10-07T14:53:39.151Z,22.97
2022-10-07T14:56:05.780Z,22.97
2022-10-07T14:58:32.498Z,22.99
2022-10-07T15:00:58.957Z,22.97
2022-10-07T15:03:25.410Z,23.00
2022-10-07T15:05:53.513Z,22.93
2022-10-07T15:08:22.335Z,23.00
2022-10-07T15:11:03.564Z,22.98
2022-10-07T15:13:30.403Z,22.99
2022-10-07T15:15:57.095Z,22.98
2022-10-07T15:18:23.615Z,22.89
2022-10-07T15:20:56.970Z,22.95
2022-10-07T15:23:23.897Z,22.93
2022-10-07T15:25:51.403Z,22.92
2022-10-07T15:28:18.314Z,22.87
2022-10-07T15:30:44.907Z,22.89
2022-10-07T15:33:12.481Z,22.88
2022-10-07T15:35:38.933Z,22.86
2022-10-07T15:38:05.398Z,22.87
2022-10-07T15:40:32.337Z,22.86
2022-10-07T15:42:59.109Z,22.86
2022-10-07T15:45:26.752Z,22.87
2022-10-07T15:47:56.909Z,22.83
2022-10-07T15:50:27.448Z,22.82
2022-10-07T15:52:54.710Z,22.79
2022-10-07T15:55:21.162Z,22.77
2022-10-07T15:57:47.848Z,22.77
2022-10-07T16:00:15.102Z,22.77
2022-10-07T16:02:41.746Z,22.73
2022-10-07T16:05:09.912Z,22.71
2022-10-07T16:07:36.529Z,22.71
2022-10-07T16:10:03.138Z,22.70
2022-10-07T16:12:29.595Z,22.70
2022-10-07T16:14:56.219Z,22.68
2022-10-07T16:17:22.678Z,22.68
2022-10-07T16:19:50.208Z,22.67
2022-10-07T16:22:16.730Z,22.65
2022-10-07T16:24:43.297Z,22.63
2022-10-07T16:27:09.755Z,22.60
2022-10-07T16:29:54.740Z,22.63
2022-10-07T16:32:21.213Z,22.61
2022-10-07T16:34:48.260Z,22.61
2022-10-07T16:37:15.382Z,22.59
2022-10-07T16:39:41.949Z,22.58
2022-10-07T16:42:08.633Z,22.57
2022-10-07T16:44:35.833Z,22.55
2022-10-07T16:47:02.927Z,22.56
2022-10-07T16:49:30.213Z,22.54
2022-10-07T16:51:57.178Z,22.54
2022-10-07T16:54:24.052Z,22.53
2022-10-07T16:56:52.241Z,22.50
2022-10-07T16:59:24.009Z,22.50
2022-10-07T17:01:52.641Z,22.48
2022-10-07T17:04:19.333Z,22.46
2022-10-07T17:06:46.119Z,22.47
2022-10-07T17:09:13.050Z,22.45
2022-10-07T17:11:39.583Z,22.43
2022-10-07T17:14:16.850Z,22.41
2022-10-07T17:16:51.022Z,22.38
2022-10-07T17:19:22.418Z,22.40
2022-10-07T17:21:49.285Z,22.39
2022-10-07T17:24:16.891Z,22.39
2022-10-07T17:26:43.985Z,22.40
2022-10-07T17:29:12.187Z,22.35
2022-10-07T17:31:40.582Z,22.39
2022-10-07T17:34:07.188Z,22.39
2022-10-07T17:36:34.983Z,22.37
2022-10-07T17:39:01.497Z,22.41
2022-10-07T17:41:28.800Z,22.40
2022-10-07T17:43:56.595Z,22.39
2022-10-07T17:46:23.976Z,22.40
2022-10-07T17:48:51.728Z,22.39
2022-10-07T17:51:19.600Z,22.37
2022-10-07T17:53:46.230Z,22.40
2022-10-07T17:56:14.242Z,22.36
2022-10-07T17:58:41.625Z,22.34
2022-10-07T18:01:11.555Z,22.35
2022-10-07T18:03:38.364Z,22.35
2022-10-07T18:06:07.183Z,22.34
2022-10-07T18:08:35.106Z,22.34
2022-10-07T18:11:02.859Z,22.34
2022-10-07T18:13:50.290Z,22.35
2022-10-07T18:16:20.878Z,22.33
2022-10-07T18:18:48.208Z,22.33
2022-10-07T18:21:14.808Z,22.31
2022-10-07T18:23:41.378Z,22.29
2022-10-07T18:26:10.050Z,22.28
2022-10-07T18:28:38.032Z,22.28
2022-10-07T18:31:10.821Z,22.28
2022-10-07T18:33:38.215Z,22.26
2022-10-07T18:36:09.441Z,22.25
2022-10-07T18:38:37.852Z,22.24
2022-10-07T18:41:09.229Z,22.23
2022-10-07T18:43:35.737Z,22.24
2022-10-07T18:46:18.053Z,22.23
2022-10-07T18:48:45.165Z,22.22
2022-10-07T18:51:12.820Z,22.23
2022-10-07T18:53:40.227Z,22.23
2022-10-07T18:56:08.352Z,22.23
2022-10-07T18:58:42.823Z,22.24
2022-10-07T19:01:16.971Z,22.22
2022-10-07T19:03:43.681Z,22.22
2022-10-07T19:06:16.274Z,22.19
2022-10-07T19:08:43.092Z,22.21
2022-10-07T19:11:11.091Z,22.20
2022-10-07T19:13:59.100Z,22.19
2022-10-07T19:16:27.237Z,22.18
2022-10-07T19:18:55.842Z,22.17
2022-10-07T19:21:23.090Z,22.17
2022-10-07T19:23:51.430Z,22.15
2022-10-07T19:26:21.465Z,22.13
2022-10-07T19:28:48.920Z,22.13
2022-10-07T19:31:29.704Z,22.13
2022-10-07T19:33:57.693Z,22.13
2022-10-07T19:36:24.151Z,22.10
2022-10-07T19:38:53.547Z,22.12
2022-10-07T19:41:24.003Z,22.11
2022-10-07T19:43:50.603Z,22.11
2022-10-07T19:46:17.546Z,22.09
2022-10-07T19:48:44.089Z,22.09
2022-10-07T19:51:12.271Z,22.10
2022-10-07T19:53:42.214Z,22.10
2022-10-07T19:56:16.752Z,22.09
2022-10-07T19:58:49.018Z,22.08
2022-10-07T20:01:17.061Z,22.08
2022-10-07T20:03:43.574Z,22.07
2022-10-07T20:06:11.295Z,22.08
2022-10-07T20:08:39.628Z,22.06
2022-10-07T20:11:06.440Z,22.07
2022-10-07T20:13:33.479Z,22.05
2022-10-07T20:16:14.736Z,22.05
2022-10-07T20:18:41.313Z,22.04
2022-10-07T20:21:11.237Z,22.02
2022-10-07T20:23:45.385Z,22.02
2022-10-07T20:26:18.660Z,21.99
2022-10-07T20:28:50.343Z,21.95
2022-10-07T20:31:18.211Z,22.01
2022-10-07T20:33:46.294Z,21.90
2022-10-07T20:36:15.176Z,21.91
2022-10-07T20:39:00.241Z,21.92
2022-10-07T20:41:45.610Z,21.92
2022-10-07T20:44:12.810Z,21.92
2022-10-07T20:46:39.297Z,21.92
2022-10-07T20:49:22.169Z,21.90
2022-10-07T20:51:52.568Z,21.88
2022-10-07T20:54:19.957Z,21.90
2022-10-07T20:56:46.858Z,21.91
2022-10-07T20:59:14.034Z,21.91
2022-10-07T21:01:40.726Z,21.92
2022-10-07T21:04:07.869Z,21.90
2022-10-07T21:06:34.418Z,21.89
2022-10-07T21:09:00.914Z,21.90
2022-10-07T21:11:27.621Z,21.90
2022-10-07T21:13:57.183Z,21.91
2022-10-07T21:16:24.226Z,21.90
2022-10-07T21:18:50.987Z,21.90
2022-10-07T21:21:17.754Z,21.91
2022-10-07T21:23:44.729Z,21.94
2022-10-07T21:26:11.334Z,21.94
2022-10-07T21:28:38.233Z,21.93
2022-10-07T21:31:08.276Z,21.92
2022-10-07T21:33:35.710Z,21.93
2022-10-07T21:36:06.950Z,21.92
2022-10-07T21:38:34.159Z,21.91
2022-10-07T21:41:01.110Z,21.90
2022-10-07T21:43:27.895Z,21.91
2022-10-07T21:45:58.794Z,21.92
2022-10-07T21:48:26.031Z,21.91
2022-10-07T21:50:56.232Z,21.90
2022-10-07T21:53:22.784Z,21.88
2022-10-07T21:55:49.764Z,21.91
2022-10-07T21:58:16.292Z,21.91
2022-10-07T22:00:43.200Z,21.92
2022-10-07T22:03:10.783Z,21.93
2022-10-07T22:05:40.066Z,21.92
2022-10-07T22:08:35.287Z,21.91
2022-10-07T22:11:05.353Z,21.89
2022-10-07T22:13:33.667Z,21.87
2022-10-07T22:16:01.969Z,21.89
2022-10-07T22:18:34.945Z,21.88
2022-10-07T22:21:10.942Z,21.86
2022-10-07T22:23:37.700Z,21.85
2022-10-07T22:26:04.480Z,21.86
2022-10-07T22:28:31.397Z,21.83
2022-10-07T22:30:59.017Z,21.80
2022-10-07T22:33:25.886Z,21.80
2022-10-07T22:35:52.326Z,21.79
2022-10-07T22:38:19.510Z,21.79
2022-10-07T22:40:45.958Z,21.78
2022-10-07T22:43:12.550Z,21.78
2022-10-07T22:45:39.051Z,21.76
2022-10-07T22:48:05.572Z,21.75
2022-10-07T22:50:32.279Z,21.77
2022-10-07T22:52:58.805Z,21.74
2022-10-07T22:55:26.246Z,21.74
2022-10-07T22:57:53.205Z,21.72
2022-10-07T23:00:20.946Z,21.69
2022-10-07T23:02:47.756Z,21.72
2022-10-07T23:05:14.540Z,21.72
2022-10-07T23:07:40.981Z,21.72
2022-10-07T23:10:07.953Z,21.73
2022-10-07T23:12:34.401Z,21.73
2022-10-07T23:15:00.952Z,21.72
2022-10-07T23:17:28.000Z,21.73
2022-10-07T23:19:54.517Z,21.71
2022-10-07T23:22:21.863Z,21.73
2022-10-07T23:24:48.377Z,21.71
2022-10-07T23:27:14.994Z,21.72
2022-10-07T23:29:41.476Z,21.72
2022-10-07T23:32:08.045Z,21.72
2022-10-07T23:34:34.488Z,21.71
2022-10-07T23:37:00.948Z,21.71
2022-10-07T23:39:27.659Z,21.72
2022-10-07T23:41:54.884Z,21.72
2022-10-07T23:44:22.967Z,21.71
2022-10-07T23:46:51.653Z,21.70
2022-10-07T23:49:18.218Z,21.68
2022-10-07T23:51:44.911Z,21.67
2022-10-07T23:54:11.398Z,21.68
2022-10-07T23:56:37.837Z,21.67
2022-10-07T23:59:04.345Z,21.65
